createdAt,value
2023-11-17T07:22:05.061Z,98506.97
2023-11-17T07:24:33.461Z,98504.50
2023-11-17T07:27:02.530Z,98509.03
2023-11-17T07:29:33.657Z,98509.22
2023-11-17T07:32:02.076Z,98511.50
2023-11-17T07:34:30.306Z,98509.06
2023-11-17T07:36:58.018Z,98522.06
2023-11-17T07:39:27.239Z,98518.13
2023-11-17T07:41:54.823Z,98521.22
2023-11-17T07:44:25.636Z,98529.69
2023-11-17T07:46:54.716Z,98539.19
2023-11-17T07:49:23.454Z,98540.00
2023-11-17T07:51:51.655Z,98553.00
2023-11-17T07:54:23.237Z,98548.88
2023-11-17T07:56:54.175Z,98553.22
2023-11-17T07:59:25.715Z,98556.53
2023-11-17T08:01:58.078Z,98559.00
2023-11-17T08:04:27.758Z,98571.59
2023-11-17T08:07:01.924Z,98560.88
2023-11-17T08:09:34.336Z,98574.31
2023-11-17T08:12:03.062Z,98577.41
2023-11-17T08:14:31.166Z,98588.78
2023-11-17T08:16:58.908Z,98590.25
2023-11-17T08:19:26.823Z,98586.72
2023-11-17T08:21:56.389Z,98587.56
2023-11-17T08:24:25.157Z,98590.88
2023-11-17T08:26:53.854Z,98597.91
2023-11-17T08:29:23.424Z,98605.13
2023-11-17T08:31:52.935Z,98599.53
2023-11-17T08:34:23.158Z,98603.25
2023-11-17T08:36:51.136Z,98613.19
2023-11-17T08:42:11.187Z,98599.91
2023-11-17T08:44:44.536Z,98606.91
2023-11-17T08:47:14.856Z,98601.97
2023-11-17T08:50:18.589Z,98615.16
2023-11-17T08:52:47.928Z,98612.25
2023-11-17T08:55:20.075Z,98610.19
2023-11-17T08:57:48.109Z,98616.38
2023-11-17T09:00:21.075Z,98612.44
2023-11-17T09:05:48.246Z,98594.06
2023-11-17T09:08:18.540Z,98583.34
2023-11-17T09:10:48.200Z,98599.44
2023-11-17T09:13:20.649Z,98603.41
2023-11-17T09:15:49.269Z,98596.78
2023-11-17T09:18:19.558Z,98608.38
2023-11-17T09:20:48.643Z,98597.22
2023-11-17T09:23:16.772Z,98596.19
2023-11-17T09:25:44.771Z,98616.84
2023-11-17T09:28:13.640Z,98603.81
2023-11-17T09:30:46.421Z,98597.22
2023-11-17T09:33:17.040Z,98608.78
2023-11-17T09:35:45.125Z,98618.91
2023-11-17T09:38:22.619Z,98617.25
2023-11-17T09:40:53.531Z,98613.94
